Boulder, Illinois
Current Conditions -  °F | °C
As of 10:15 AM on Thursday 18 Dec 2014 (Local Time) from KENL Reporting Station
Overcast Overcast  
Wind Chill: 29°   Ceiling: 5000
Heat Index: 29°   Visibility: 7mi
Dew Point: 24°   Wind: 0mph
Humidity: 82%   Direction: NA
Pressure: 30.31"   Gusts: NA
Location:  38.5905°N, 89.3709°W
Report Text: KENL 181615Z AUTO 00000KT 7SM SCT011 OVC050 M02/M04 A3031 RMK AO2 T10161043
Loading
Personal Weather Stations






























Interactive Weather Map New forecast layout! Learn more

10-Day Weather Forecast

Advertisements
Track Severe Weather on mobile